createdAt,value
2023-02-03T00:00:10.047Z,84.78
2023-02-03T00:03:14.125Z,84.10
2023-02-03T00:06:15.729Z,83.72
2023-02-03T00:09:17.644Z,83.35
2023-02-03T00:12:19.228Z,83.63
2023-02-03T00:15:23.138Z,82.98
2023-02-03T00:18:24.645Z,82.64
2023-02-03T00:21:26.163Z,82.62
2023-02-03T00:24:28.482Z,82.07
2023-02-03T00:27:30.090Z,81.89
2023-02-03T00:30:36.463Z,82.28
2023-02-03T00:33:38.999Z,82.82
2023-02-03T00:36:42.832Z,82.50
2023-02-03T00:39:44.553Z,82.24
2023-02-03T00:42:46.229Z,82.22
2023-02-03T00:45:47.921Z,82.75
2023-02-03T00:48:49.483Z,83.29
2023-02-03T00:51:51.751Z,82.50
2023-02-03T00:54:53.223Z,82.72
2023-02-03T00:57:54.754Z,82.98
2023-02-03T01:00:57.151Z,82.91
2023-02-03T01:04:00.299Z,82.72
2023-02-03T01:07:01.806Z,83.12
2023-02-03T01:10:04.924Z,83.42
2023-02-03T01:13:08.015Z,83.60
2023-02-03T01:16:11.731Z,83.26
2023-02-03T01:19:14.772Z,83.29
2023-02-03T01:22:16.250Z,83.81
2023-02-03T01:25:17.812Z,83.98
2023-02-03T01:28:19.257Z,83.76
2023-02-03T01:31:24.566Z,83.90
2023-02-03T01:34:26.200Z,83.73
2023-02-03T01:37:27.726Z,83.48
2023-02-03T01:40:29.406Z,83.90
2023-02-03T01:43:39.627Z,84.11
2023-02-03T01:46:51.409Z,84.35
2023-02-03T01:50:03.208Z,84.08
2023-02-03T01:53:10.544Z,83.94
2023-02-03T01:56:12.770Z,84.91
2023-02-03T01:59:19.738Z,85.01
2023-02-03T02:02:21.782Z,84.91
2023-02-03T02:05:47.209Z,84.79
2023-02-03T02:08:51.953Z,85.26
2023-02-03T02:11:53.406Z,85.44
2023-02-03T02:14:55.489Z,85.50
2023-02-03T02:18:37.201Z,85.63
2023-02-03T02:21:53.610Z,85.34
2023-02-03T02:25:14.430Z,85.46
2023-02-03T02:28:35.201Z,85.16
2023-02-03T02:31:55.430Z,85.82
2023-02-03T02:35:16.337Z,85.30
2023-02-03T02:38:36.024Z,85.36
2023-02-03T02:41:58.331Z,85.26
2023-02-03T02:45:11.252Z,85.10
2023-02-03T02:48:24.271Z,84.68
2023-02-03T02:51:29.353Z,84.86
2023-02-03T02:54:33.901Z,84.64
2023-02-03T02:57:37.625Z,84.80
2023-02-03T03:00:41.104Z,85.01
2023-02-03T03:03:45.039Z,85.68
2023-02-03T03:06:51.219Z,85.25
2023-02-03T03:09:58.155Z,85.36
2023-02-03T03:13:06.089Z,85.85
2023-02-03T03:16:11.154Z,86.05
2023-02-03T03:19:17.900Z,86.63
2023-02-03T03:22:24.351Z,86.94
2023-02-03T03:25:31.888Z,86.83
2023-02-03T03:28:42.859Z,87.40
2023-02-03T03:31:45.528Z,87.65
2023-02-03T03:34:47.742Z,86.88
2023-02-03T03:38:50.530Z,87.63
2023-02-03T03:42:17.785Z,86.89
2023-02-03T03:45:25.185Z,86.72
2023-02-03T03:48:56.460Z,86.69
2023-02-03T03:52:04.185Z,86.31
2023-02-03T03:55:10.396Z,86.25
2023-02-03T03:58:21.213Z,86.53
2023-02-03T04:01:23.860Z,87.10
2023-02-03T04:04:26.847Z,86.74
2023-02-03T04:07:57.342Z,88.02
2023-02-03T04:10:58.870Z,87.55
2023-02-03T04:14:00.413Z,88.18
2023-02-03T04:17:02.118Z,87.56
2023-02-03T04:20:04.829Z,88.87
2023-02-03T04:23:06.353Z,88.96
2023-02-03T04:26:07.869Z,89.02
2023-02-03T04:29:09.473Z,89.41
2023-02-03T04:32:10.959Z,90.33
2023-02-03T04:35:12.932Z,90.00
2023-02-03T04:38:14.444Z,90.03
2023-02-03T04:41:16.476Z,89.29
2023-02-03T04:44:17.927Z,89.40
2023-02-03T04:47:20.266Z,88.86
2023-02-03T04:50:21.795Z,88.97
2023-02-03T04:53:23.289Z,88.90
2023-02-03T04:56:24.742Z,89.00
2023-02-03T04:59:26.453Z,88.76
2023-02-03T05:02:27.884Z,87.81
2023-02-03T05:05:29.404Z,87.69
2023-02-03T05:08:30.922Z,87.54
2023-02-03T05:11:32.610Z,86.93
2023-02-03T05:14:34.044Z,87.62
2023-02-03T05:17:38.840Z,87.46
2023-02-03T05:20:40.347Z,87.94
2023-02-03T05:23:42.011Z,87.69
2023-02-03T05:26:43.468Z,88.24
2023-02-03T05:29:44.980Z,88.32
2023-02-03T05:32:46.480Z,88.39
2023-02-03T05:35:47.920Z,89.17
2023-02-03T05:38:49.388Z,89.10
2023-02-03T05:41:53.808Z,89.37
2023-02-03T05:44:55.931Z,89.35
2023-02-03T05:47:57.478Z,89.67
2023-02-03T05:50:59.421Z,89.84
2023-02-03T05:54:01.016Z,90.07
2023-02-03T05:57:02.491Z,89.39
2023-02-03T06:00:04.506Z,90.18
2023-02-03T06:03:13.318Z,89.56
2023-02-03T06:06:15.635Z,89.16
2023-02-03T06:09:17.101Z,88.70
2023-02-03T06:12:18.628Z,88.41
2023-02-03T06:15:20.156Z,87.96
2023-02-03T06:18:21.958Z,88.34
2023-02-03T06:21:23.522Z,88.42
2023-02-03T06:24:25.075Z,88.68
2023-02-03T06:27:27.200Z,88.76
2023-02-03T06:30:29.133Z,87.91
2023-02-03T06:33:31.724Z,88.27
2023-02-03T06:36:33.235Z,87.73
2023-02-03T06:39:34.753Z,87.27
2023-02-03T06:42:36.402Z,87.49
2023-02-03T06:45:37.897Z,87.52
2023-02-03T06:48:39.309Z,88.00
2023-02-03T06:51:40.854Z,88.04
2023-02-03T06:54:42.375Z,88.68
2023-02-03T06:57:45.629Z,88.61
2023-02-03T07:00:47.154Z,89.17
2023-02-03T07:03:48.624Z,89.25
2023-02-03T07:06:50.085Z,89.92
2023-02-03T07:09:51.583Z,90.28
2023-02-03T07:12:53.049Z,90.34
2023-02-03T07:15:54.593Z,89.93
2023-02-03T07:18:56.138Z,90.24
2023-02-03T07:21:57.599Z,90.30
2023-02-03T07:24:59.047Z,90.51
2023-02-03T07:28:01.508Z,90.28
2023-02-03T07:31:04.833Z,90.04
2023-02-03T07:34:06.492Z,89.50
2023-02-03T07:37:08.123Z,90.19
2023-02-03T07:40:11.734Z,89.36
2023-02-03T07:43:13.610Z,87.94
2023-02-03T07:46:15.173Z,87.14
2023-02-03T07:49:16.820Z,85.57
2023-02-03T07:52:18.257Z,85.55
2023-02-03T07:55:19.745Z,84.64
2023-02-03T07:58:21.181Z,84.31
2023-02-03T08:01:22.639Z,84.69
2023-02-03T08:04:24.386Z,84.85
2023-02-03T08:07:25.863Z,84.43
2023-02-03T08:10:27.808Z,84.32
2023-02-03T08:13:29.497Z,83.53
2023-02-03T08:16:31.058Z,82.52
2023-02-03T08:19:32.732Z,82.32
2023-02-03T08:22:34.210Z,81.29
2023-02-03T08:25:35.726Z,81.23
2023-02-03T08:28:37.250Z,81.10
2023-02-03T08:31:39.152Z,80.49
2023-02-03T08:34:40.722Z,79.69
2023-02-03T08:37:42.956Z,79.94
2023-02-03T08:40:44.474Z,79.45
2023-02-03T08:43:46.114Z,79.45
2023-02-03T08:46:52.075Z,79.82
2023-02-03T08:49:53.732Z,80.60
2023-02-03T08:52:55.210Z,80.21
2023-02-03T08:55:56.707Z,80.81
2023-02-03T08:58:58.270Z,80.84
2023-02-03T09:01:59.922Z,80.77
2023-02-03T09:05:01.776Z,79.56
2023-02-03T09:08:03.680Z,78.64
2023-02-03T09:11:09.818Z,78.67
2023-02-03T09:14:11.430Z,77.95
2023-02-03T09:17:12.966Z,78.74
2023-02-03T09:20:15.056Z,78.66
2023-02-03T09:23:16.550Z,78.86
2023-02-03T09:26:18.157Z,78.78
2023-02-03T09:29:20.184Z,78.92
2023-02-03T09:32:21.660Z,77.77
2023-02-03T09:35:23.734Z,77.50
2023-02-03T09:38:26.620Z,77.42
2023-02-03T09:41:49.784Z,77.33
2023-02-03T09:45:13.260Z,76.80
2023-02-03T09:48:19.611Z,77.31
2023-02-03T09:51:29.503Z,77.84
2023-02-03T09:54:54.618Z,79.39
2023-02-03T09:58:04.296Z,80.61
2023-02-03T10:01:13.296Z,82.08
2023-02-03T10:04:34.119Z,82.38
2023-02-03T10:07:47.870Z,81.35
2023-02-03T10:11:10.791Z,80.02
2023-02-03T10:14:30.918Z,79.84
2023-02-03T10:17:44.164Z,79.07
2023-02-03T10:20:53.382Z,78.93
2023-02-03T10:23:58.306Z,78.69
2023-02-03T10:26:59.970Z,78.14
2023-02-03T10:30:21.507Z,76.66
2023-02-03T10:33:27.292Z,75.94
2023-02-03T10:36:38.640Z,75.75
2023-02-03T10:39:47.992Z,74.30
2023-02-03T10:43:07.819Z,75.72
2023-02-03T10:46:09.436Z,76.30
2023-02-03T10:49:13.493Z,76.47
2023-02-03T10:52:25.478Z,76.38
2023-02-03T10:55:26.957Z,77.12
2023-02-03T10:58:30.460Z,76.38
2023-02-03T11:01:44.762Z,75.77
2023-02-03T11:04:46.729Z,74.89
2023-02-03T11:07:48.589Z,73.91
2023-02-03T11:10:50.436Z,74.25
2023-02-03T11:14:02.027Z,73.28
2023-02-03T11:17:16.204Z,73.00
2023-02-03T11:20:18.093Z,73.24
2023-02-03T11:23:23.453Z,72.77
2023-02-03T11:26:30.877Z,72.00
2023-02-03T11:30:06.495Z,72.11
2023-02-03T11:33:19.422Z,71.60
2023-02-03T11:36:20.946Z,71.38
2023-02-03T11:39:35.552Z,71.14
2023-02-03T11:42:41.260Z,70.16
2023-02-03T11:45:47.174Z,69.84
2023-02-03T11:49:17.997Z,69.84
2023-02-03T11:52:22.535Z,68.86
2023-02-03T11:55:32.968Z,69.08
2023-02-03T11:58:59.879Z,68.56
2023-02-03T12:02:17.893Z,68.09
2023-02-03T12:05:41.037Z,68.13
2023-02-03T12:08:56.507Z,67.97
2023-02-03T12:12:13.999Z,68.38
2023-02-03T12:15:21.857Z,67.61
2023-02-03T12:18:36.857Z,67.07
2023-02-03T12:21:44.335Z,67.18
2023-02-03T12:24:55.434Z,67.64
2023-02-03T12:28:27.403Z,67.39
2023-02-03T12:31:54.799Z,68.05
2023-02-03T12:35:05.915Z,67.09
2023-02-03T12:38:16.272Z,67.12
2023-02-03T12:41:26.279Z,67.47
2023-02-03T12:44:44.450Z,67.53
2023-02-03T12:47:50.745Z,67.56
2023-02-03T12:50:59.480Z,67.73
2023-02-03T12:54:16.351Z,67.56
2023-02-03T12:57:20.676Z,67.69
2023-02-03T13:00:50.309Z,67.96
2023-02-03T13:04:29.091Z,68.57
2023-02-03T13:07:40.550Z,69.39
2023-02-03T13:10:50.042Z,69.60
2023-02-03T13:14:05.767Z,69.62
2023-02-03T13:17:17.189Z,70.16
2023-02-03T13:20:29.116Z,70.14
2023-02-03T13:23:31.681Z,70.30
2023-02-03T13:26:54.906Z,70.64
2023-02-03T13:30:22.779Z,70.48
2023-02-03T13:33:44.528Z,70.80
2023-02-03T13:37:24.161Z,71.02
2023-02-03T13:40:37.556Z,70.79
2023-02-03T13:43:44.700Z,70.86
2023-02-03T13:46:51.277Z,70.81
2023-02-03T13:49:59.856Z,71.21
2023-02-03T13:53:20.921Z,71.10
2023-02-03T13:56:28.712Z,71.09
2023-02-03T13:59:44.982Z,71.11
2023-02-03T14:02:54.296Z,71.02
2023-02-03T14:06:01.586Z,71.50
2023-02-03T14:09:20.547Z,72.19
2023-02-03T14:12:33.321Z,72.66
2023-02-03T14:15:36.442Z,73.52
2023-02-03T14:18:45.936Z,73.82
2023-02-03T14:21:55.416Z,74.17
2023-02-03T14:25:04.278Z,74.14
2023-02-03T14:28:10.756Z,74.73
2023-02-03T14:31:19.180Z,75.16
2023-02-03T14:34:31.121Z,75.42
2023-02-03T14:37:32.822Z,75.68
2023-02-03T14:40:54.927Z,75.41
2023-02-03T14:44:24.952Z,75.38
2023-02-03T14:47:32.633Z,74.95
2023-02-03T14:50:50.606Z,75.26
2023-02-03T14:53:52.066Z,75.10
2023-02-03T14:57:15.937Z,75.34
2023-02-03T15:00:20.626Z,75.47
2023-02-03T15:03:27.968Z,75.41
2023-02-03T15:06:40.362Z,75.80
2023-02-03T15:09:48.223Z,75.78
2023-02-03T15:12:52.608Z,75.56
2023-02-03T15:16:04.885Z,75.04
2023-02-03T15:19:17.119Z,75.37
2023-02-03T15:22:29.574Z,75.45
2023-02-03T15:25:32.903Z,75.45
2023-02-03T15:28:34.375Z,75.32
2023-02-03T15:31:43.767Z,75.14
2023-02-03T15:34:49.310Z,75.55
2023-02-03T15:38:00.724Z,75.80
2023-02-03T15:41:06.732Z,75.84
2023-02-03T15:44:17.133Z,76.40
2023-02-03T15:47:29.518Z,76.57
2023-02-03T15:50:36.868Z,77.11
2023-02-03T15:53:47.935Z,77.57
2023-02-03T15:57:02.053Z,77.83
2023-02-03T16:00:26.255Z,78.16
2023-02-03T16:03:39.048Z,77.89
2023-02-03T16:06:44.906Z,78.00
2023-02-03T16:09:46.737Z,77.93
2023-02-03T16:12:48.244Z,77.88
2023-02-03T16:16:08.315Z,77.94
2023-02-03T16:19:20.363Z,78.08
2023-02-03T16:22:38.548Z,78.00
2023-02-03T16:25:39.992Z,77.73
2023-02-03T16:29:00.071Z,77.84
2023-02-03T16:32:19.894Z,78.03
2023-02-03T16:35:40.377Z,78.14
2023-02-03T16:39:08.224Z,77.90
2023-02-03T16:42:35.690Z,77.53
2023-02-03T16:45:55.685Z,77.22
2023-02-03T16:49:15.686Z,77.02
2023-02-03T16:52:17.142Z,77.41
2023-02-03T16:55:18.766Z,77.05
2023-02-03T16:58:20.478Z,76.76
2023-02-03T17:01:22.058Z,76.75
2023-02-03T17:04:23.667Z,76.58
2023-02-03T17:07:25.118Z,76.46
2023-02-03T17:10:27.305Z,76.73
2023-02-03T17:13:28.863Z,76.62
2023-02-03T17:16:31.193Z,76.67
2023-02-03T17:19:32.772Z,76.92
2023-02-03T17:22:34.836Z,77.06
2023-02-03T17:25:37.548Z,77.25
2023-02-03T17:28:40.375Z,78.00
2023-02-03T17:31:42.029Z,78.33
2023-02-03T17:34:44.259Z,79.49
2023-02-03T17:37:45.702Z,80.20
2023-02-03T17:58:46.326Z,89.46
2023-02-03T18:01:47.852Z,90.90
2023-02-03T18:04:49.342Z,92.70
2023-02-03T18:07:50.865Z,93.10
2023-02-03T18:10:52.419Z,93.66
2023-02-03T18:13:53.929Z,93.56
2023-02-03T18:16:55.447Z,93.52
2023-02-03T18:19:58.995Z,93.85
2023-02-03T18:23:00.524Z,93.65
2023-02-03T18:26:02.419Z,93.09
2023-02-03T18:29:05.606Z,92.85
2023-02-03T18:32:07.153Z,92.92
2023-02-03T18:35:13.018Z,93.52
2023-02-03T18:38:14.883Z,94.77
2023-02-03T18:41:19.868Z,93.96
2023-02-03T18:44:21.526Z,93.42
2023-02-03T18:47:22.978Z,93.61
2023-02-03T18:50:25.569Z,92.92
2023-02-03T18:53:27.017Z,93.40
2023-02-03T18:56:35.095Z,93.25
2023-02-03T18:59:36.745Z,93.67
2023-02-03T19:02:38.345Z,93.44
2023-02-03T19:05:40.813Z,93.10
2023-02-03T19:08:42.539Z,93.18
2023-02-03T19:11:44.608Z,93.22
2023-02-03T19:14:46.250Z,92.62
2023-02-03T19:17:47.762Z,93.02
2023-02-03T19:20:49.246Z,92.75
2023-02-03T19:23:50.726Z,92.63
2023-02-03T19:26:52.709Z,92.25
2023-02-03T19:29:54.133Z,92.08
2023-02-03T19:32:55.589Z,91.48
2023-02-03T19:35:57.433Z,91.83
2023-02-03T19:38:58.887Z,91.51
2023-02-03T19:42:00.844Z,91.03
2023-02-03T19:45:02.300Z,90.98
2023-02-03T19:48:04.066Z,90.90
2023-02-03T19:51:07.092Z,90.13
2023-02-03T19:54:12.239Z,90.30
2023-02-03T19:57:13.762Z,90.20
2023-02-03T20:00:15.973Z,90.19
2023-02-03T20:03:19.662Z,90.41
2023-02-03T20:06:21.349Z,90.08
2023-02-03T20:09:22.961Z,89.87
2023-02-03T20:12:24.474Z,90.14
2023-02-03T20:15:26.811Z,90.75
2023-02-03T20:18:28.262Z,91.32
2023-02-03T20:21:30.299Z,91.14
2023-02-03T20:24:31.748Z,91.94
2023-02-03T20:27:33.188Z,91.81
2023-02-03T20:30:35.044Z,91.68
2023-02-03T20:33:36.514Z,91.47
2023-02-03T20:36:38.395Z,91.17
2023-02-03T20:39:40.108Z,91.17
2023-02-03T20:42:41.642Z,90.76
2023-02-03T20:45:44.071Z,90.73
2023-02-03T20:48:45.710Z,91.03
2023-02-03T20:51:47.368Z,91.01
2023-02-03T20:54:48.954Z,91.35
2023-02-03T20:57:51.541Z,92.32
2023-02-03T21:00:53.390Z,92.63
2023-02-03T21:04:13.205Z,93.35
2023-02-03T21:07:18.029Z,94.27
2023-02-03T21:10:22.106Z,94.59
2023-02-03T21:13:26.987Z,94.63
2023-02-03T21:16:37.558Z,95.90
2023-02-03T21:19:39.062Z,96.25
2023-02-03T21:22:40.480Z,96.78
2023-02-03T21:25:41.957Z,97.91
2023-02-03T21:28:43.581Z,100.00
2023-02-03T21:31:45.311Z,100.00
2023-02-03T21:34:47.970Z,100.00
2023-02-03T21:37:49.507Z,100.00
2023-02-03T21:40:51.267Z,100.00
2023-02-03T21:43:58.380Z,100.00
2023-02-03T21:47:05.212Z,100.00
2023-02-03T21:50:31.020Z,100.00
2023-02-03T21:53:35.938Z,100.00
2023-02-03T21:56:40.448Z,100.00
2023-02-03T21:59:42.804Z,100.00
2023-02-03T22:02:59.430Z,100.00
2023-02-03T22:06:03.983Z,100.00
2023-02-03T22:09:06.137Z,100.00
2023-02-03T22:12:07.972Z,100.00
2023-02-03T22:15:09.755Z,100.00
2023-02-03T22:18:11.313Z,100.00
2023-02-03T22:21:13.289Z,100.00
2023-02-03T22:24:14.800Z,100.00
2023-02-03T22:27:16.256Z,100.00
2023-02-03T22:30:18.188Z,100.00
2023-02-03T22:33:19.653Z,100.00
2023-02-03T22:36:23.334Z,100.00
2023-02-03T22:39:24.829Z,100.00
2023-02-03T22:42:26.410Z,100.00
2023-02-03T22:45:27.872Z,100.00
2023-02-03T22:48:29.419Z,100.00
2023-02-03T22:51:30.913Z,100.00
2023-02-03T22:54:32.682Z,100.00
2023-02-03T22:57:34.981Z,100.00
2023-02-03T23:00:36.523Z,100.00
2023-02-03T23:03:38.102Z,100.00
2023-02-03T23:06:39.610Z,100.00
2023-02-03T23:09:41.189Z,100.00
2023-02-03T23:12:42.662Z,100.00
2023-02-03T23:15:44.231Z,100.00
2023-02-03T23:18:46.003Z,100.00
2023-02-03T23:21:47.503Z,100.00
2023-02-03T23:24:48.929Z,100.00
2023-02-03T23:27:50.525Z,100.00
2023-02-03T23:30:52.099Z,100.00
2023-02-03T23:34:12.075Z,100.00
2023-02-03T23:37:13.592Z,100.00
2023-02-03T23:40:15.255Z,100.00
2023-02-03T23:43:16.863Z,100.00
2023-02-03T23:46:18.394Z,100.00
2023-02-03T23:49:19.910Z,100.00
2023-02-03T23:52:21.420Z,100.00
2023-02-03T23:55:23.512Z,100.00
2023-02-03T23:58:25.271Z,100.00
